Hiko, Nevada
Current Conditions -  °F | °C
As of 5:58 AM on Friday 19 Dec 2014 (Local Time) from KINS Reporting Station
Clear Clear  
Wind Chill: 32°   Ceiling: Unl
Heat Index: 32°   Visibility: 10mi
Dew Point: 32°   Wind: 2mph
Humidity: 99%   Direction: 110°ESE
Pressure: 30.22"   Gusts: NA
Location:  37.6°N, 115.23°W
Report Text: KINS 191358Z AUTO 11002KT 10SM CLR 00/00 A3022 RMK AO2 SLP233 T00021000
Loading
Personal Weather Stations






























Interactive Weather Map New forecast layout! Learn more

10-Day Weather Forecast

Advertisements
Track Severe Weather on mobile